| time (UTC) | temp C | wind direction | speed KPH | gust KPH | rain 1hr cm | rain 24hr cm | rain mn cm | humidity % | barometer mb |
| 20260905211002 | 12 | 222 | 8.0 | 16.1 | 0.00 | 1.09 | 0.71 | 88 | 1016.6 |
| 20260905210502 | 12 | 232 | 4.8 | 12.9 | 0.00 | 1.09 | 0.71 | 88 | 1016.7 |
| 20260905210002 | 12 | 213 | 6.4 | 12.9 | 0.00 | 1.09 | 0.71 | 88 | 1016.7 |
| 20260905205501 | 12 | 204 | 6.4 | 12.9 | 0.00 | 1.09 | 0.71 | 88 | 1016.7 |
| 20260905205001 | 12 | 218 | 6.4 | 12.9 | 0.00 | 1.09 | 0.71 | 88 | 1016.6 |
| 20260905204600 | 12 | 178 | 6.4 | 12.9 | 0.00 | 1.09 | 0.71 | 88 | 1016.7 |
| 20260905204501 | 12 | 171 | 4.8 | 12.9 | 0.00 | 1.09 | 0.71 | 88 | 1016.7 |
| 20260905204001 | 12 | 218 | 6.4 | 12.9 | 0.00 | 1.09 | 0.71 | 88 | 1016.7 |
| 20260905203501 | 12 | 167 | 4.8 | 9.7 | 0.00 | 1.09 | 0.71 | 88 | 1016.7 |
| 20260905203105 | 12 | 200 | 3.2 | 9.7 | 0.00 | 1.09 | 0.71 | 88 | 1016.7 |
| 20260905203002 | 12 | 196 | 4.8 | 9.7 | 0.00 | 1.09 | 0.71 | 88 | 1016.6 |
| 20260905202501 | 12 | 199 | 4.8 | 11.3 | 0.00 | 1.09 | 0.71 | 88 | 1016.7 |
| 20260905202001 | 12 | 269 | 4.8 | 11.3 | 0.00 | 1.09 | 0.71 | 88 | 1016.7 |
| 20260905201611 | 12 | 199 | 4.8 | 11.3 | 0.00 | 1.09 | 0.71 | 88 | 1016.6 |
| 20260905201502 | 12 | 220 | 4.8 | 12.9 | 0.00 | 1.09 | 0.71 | 88 | 1016.6 |
| 20260905201100 | 12 | 186 | 3.2 | 19.3 | 0.00 | 1.09 | 0.71 | 88 | 1016.6 |
| 20260905201001 | 12 | 230 | 3.2 | 19.3 | 0.00 | 1.09 | 0.71 | 88 | 1016.6 |
| 20260905200501 | 12 | 213 | 4.8 | 14.5 | 0.00 | 1.09 | 0.71 | 88 | 1016.5 |
| 20260905200005 | 12 | 209 | 6.4 | 14.5 | 0.00 | 1.09 | 0.71 | 88 | 1016.5 |
| 20260905195501 | 12 | 230 | 6.4 | 11.3 | 0.00 | 1.09 | 0.71 | 88 | 1016.4 |
| 20260905195002 | 12 | 165 | 8.0 | 12.9 | 0.00 | 1.09 | 0.71 | 88 | 1016.4 |
| 20260905194502 | 12 | 195 | 4.8 | 14.5 | 0.00 | 1.09 | 0.71 | 88 | 1016.5 |
| 20260905194003 | 12 | 222 | 8.0 | 14.5 | 0.00 | 1.09 | 0.71 | 88 | 1016.4 |
| 20260905193502 | 12 | 213 | 4.8 | 17.7 | 0.00 | 1.09 | 0.71 | 88 | 1016.3 |
| 20260905193006 | 12 | 213 | 8.0 | 17.7 | 0.00 | 1.09 | 0.71 | 88 | 1016.3 |
| 20260905192504 | 12 | 176 | 6.4 | 12.9 | 0.00 | 1.09 | 0.71 | 88 | 1016.3 |
| 20260905192001 | 12 | 236 | 6.4 | 12.9 | 0.00 | 1.09 | 0.71 | 88 | 1016.3 |
| 20260905191503 | 12 | 244 | 6.4 | 14.5 | 0.00 | 1.09 | 0.71 | 88 | 1016.2 |
| 20260905191001 | 12 | 222 | 4.8 | 16.1 | 0.00 | 1.09 | 0.71 | 88 | 1016.2 |
| 20260905190502 | 12 | 223 | 6.4 | 16.1 | 0.00 | 1.09 | 0.71 | 88 | 1016.3 |
| 20260905190003 | 12 | 221 | 6.4 | 17.7 | 0.00 | 1.09 | 0.71 | 88 | 1016.2 |
| 20260905185601 | 12 | 220 | 9.7 | 17.7 | 0.00 | 1.09 | 0.71 | 88 | 1016.2 |
| 20260905185501 | 12 | 212 | 8.0 | 17.7 | 0.00 | 1.09 | 0.71 | 88 | 1016.2 |
| 20260905185102 | 12 | 261 | 8.0 | 14.5 | 0.00 | 1.09 | 0.71 | 88 | 1016.2 |
| 20260905185001 | 12 | 223 | 8.0 | 14.5 | 0.00 | 1.09 | 0.71 | 88 | 1016.1 |
| 20260905184502 | 12 | 207 | 6.4 | 14.5 | 0.00 | 1.09 | 0.71 | 88 | 1016.0 |
| 20260905184103 | 12 | 222 | 4.8 | 12.9 | 0.00 | 1.09 | 0.71 | 88 | 1016.0 |
| 20260905184004 | 12 | 220 | 4.8 | 12.9 | 0.00 | 1.09 | 0.71 | 88 | 1016.0 |
| 20260905183601 | 12 | 199 | 6.4 | 17.7 | 0.00 | 1.09 | 0.71 | 88 | 1016.0 |
| 20260905183501 | 12 | 215 | 6.4 | 17.7 | 0.00 | 1.09 | 0.71 | 88 | 1016.0 |
| 20260905183100 | 12 | 151 | 6.4 | 17.7 | 0.00 | 1.09 | 0.71 | 88 | 1016.0 |
| 20260905183001 | 12 | 280 | 8.0 | 17.7 | 0.00 | 1.09 | 0.71 | 88 | 1016.0 |
| 20260905182501 | 12 | 195 | 4.8 | 19.3 | 0.00 | 1.09 | 0.71 | 88 | 1016.0 |
| 20260905182101 | 12 | 205 | 8.0 | 19.3 | 0.00 | 1.09 | 0.71 | 88 | 1016.0 |
| 20260905182002 | 12 | 251 | 8.0 | 19.3 | 0.00 | 1.09 | 0.71 | 88 | 1016.0 |
| 20260905181502 | 12 | 155 | 4.8 | 12.9 | 0.00 | 1.09 | 0.71 | 88 | 1015.9 |
| 20260905181101 | 12 | 221 | 4.8 | 12.9 | 0.03 | 1.09 | 0.71 | 88 | 1015.9 |
| 20260905180601 | 12 | 217 | 4.8 | 12.9 | 0.05 | 1.09 | 0.71 | 88 | 1015.8 |
| 20260905180002 | 12 | 232 | 6.4 | 11.3 | 0.08 | 1.09 | 0.71 | 88 | 1015.7 |
| 20260905175600 | 12 | 165 | 4.8 | 11.3 | 0.10 | 1.09 | 0.71 | 89 | 1015.6 |
| 20260905175002 | 12 | 215 | 6.4 | 16.1 | 0.15 | 1.09 | 0.71 | 89 | 1015.5 |
| 20260905174502 | 12 | 221 | 8.0 | 16.1 | 0.23 | 1.09 | 0.71 | 89 | 1015.5 |
| 20260905174001 | 12 | 217 | 6.4 | 12.9 | 0.25 | 1.09 | 0.71 | 89 | 1015.4 |
| 20260905173501 | 12 | 200 | 4.8 | 11.3 | 0.33 | 1.09 | 0.71 | 88 | 1015.4 |
| 20260905173104 | 12 | 169 | 4.8 | 12.9 | 0.33 | 1.09 | 0.71 | 88 | 1015.3 |
| 20260905173004 | 12 | 222 | 4.8 | 12.9 | 0.33 | 1.09 | 0.71 | 88 | 1015.3 |
| 20260905172600 | 12 | 202 | 4.8 | 12.9 | 0.41 | 1.09 | 0.71 | 88 | 1015.3 |
| 20260905172502 | 12 | 209 | 4.8 | 12.9 | 0.41 | 1.09 | 0.71 | 88 | 1015.2 |
| 20260905172001 | 12 | 202 | 4.8 | 14.5 | 0.43 | 1.09 | 0.71 | 89 | 1015.1 |
| 20260905171500 | 12 | 225 | 3.2 | 9.7 | 0.46 | 1.09 | 0.71 | 89 | 1015.2 |
| 20260905171001 | 13 | 142 | 0.0 | 11.3 | 0.46 | 1.09 | 0.71 | 89 | 1015.1 |
| 20260905170501 | 13 | 216 | 1.6 | 14.5 | 0.48 | 1.04 | 0.69 | 88 | 1014.9 |
| 20260905170002 | 13 | 160 | 1.6 | 14.5 | 0.48 | 1.37 | 0.66 | 88 | 1015.0 |
| 20260905165502 | 13 | 219 | 4.8 | 17.7 | 0.48 | 1.35 | 0.61 | 88 | 1015.1 |
| 20260905165002 | 13 | 207 | 6.4 | 17.7 | 0.53 | 1.30 | 0.58 | 88 | 1015.1 |
| 20260905164601 | 13 | 213 | 3.2 | 19.3 | 0.51 | 1.27 | 0.53 | 88 | 1015.2 |
| 20260905164001 | 13 | 184 | 6.4 | 19.3 | 0.43 | 1.19 | 0.48 | 88 | 1015.3 |
| 20260905163500 | 13 | 232 | 6.4 | 17.7 | 0.38 | 1.14 | 0.43 | 88 | 1015.3 |
| 20260905163104 | 13 | 280 | 4.8 | 19.3 | 0.36 | 1.12 | 0.41 | 88 | 1015.3 |
| 20260905162503 | 13 | 227 | 3.2 | 11.3 | 0.30 | 1.07 | 0.33 | 87 | 1015.3 |
| 20260905162001 | 13 | 225 | 4.8 | 17.7 | 0.25 | 1.02 | 0.30 | 87 | 1015.1 |
| 20260905161600 | 13 | 243 | 6.4 | 17.7 | 0.23 | 0.99 | 0.28 | 87 | 1014.9 |
| 20260905161501 | 13 | 223 | 8.0 | 17.7 | 0.23 | 0.99 | 0.28 | 87 | 1014.8 |
| 20260905161000 | 13 | 218 | 4.8 | 22.5 | 0.23 | 0.99 | 0.25 | 86 | 1014.7 |
| 20260905160503 | 13 | 235 | 3.2 | 22.5 | 0.15 | 0.91 | 0.20 | 85 | 1014.9 |
| 20260905160003 | 14 | 212 | 8.0 | 33.8 | 0.15 | 0.89 | 0.18 | 84 | 1015.0 |
| 20260905155501 | 15 | 241 | 16.1 | 46.7 | 0.10 | 0.86 | 0.15 | 80 | 1015.0 |
| 20260905155002 | 16 | 228 | 24.1 | 46.7 | 0.00 | 0.76 | 0.05 | 76 | 1014.9 |
| 20260905154501 | 17 | 317 | 3.2 | 16.1 | 0.00 | 0.76 | 0.05 | 76 | 1014.5 |
| 20260905154001 | 17 | 75 | 4.8 | 14.5 | 0.00 | 0.76 | 0.05 | 75 | 1014.4 |
| 20260905153504 | 17 | 277 | 4.8 | 12.9 | 0.00 | 0.76 | 0.05 | 75 | 1014.3 |
| 20260905153102 | 17 | 292 | 4.8 | 19.3 | 0.00 | 0.76 | 0.05 | 76 | 1014.2 |
| 20260905152501 | 17 | 220 | 6.4 | 24.1 | 0.00 | 0.76 | 0.05 | 75 | 1014.3 |
| 20260905152003 | 17 | 225 | 8.0 | 22.5 | 0.03 | 0.76 | 0.05 | 76 | 1014.4 |
| 20260905151501 | 17 | 320 | 9.7 | 20.9 | 0.03 | 0.76 | 0.05 | 76 | 1014.3 |
| 20260905151003 | 17 | 239 | 6.4 | 20.9 | 0.03 | 0.76 | 0.05 | 76 | 1014.3 |
| 20260905150501 | 17 | 153 | 3.2 | 20.9 | 0.03 | 0.76 | 0.05 | 77 | 1014.3 |
| 20260905145559 | 18 | 281 | 6.4 | 17.7 | 0.03 | 0.76 | 0.05 | 77 | 1014.2 |
| 20260905145103 | 17 | 275 | 4.8 | 17.7 | 0.03 | 0.76 | 0.05 | 79 | 1014.3 |
| 20260905145004 | 17 | 229 | 4.8 | 24.1 | 0.03 | 0.76 | 0.05 | 79 | 1014.3 |
| 20260905144600 | 17 | 248 | 6.4 | 24.1 | 0.03 | 0.76 | 0.05 | 78 | 1014.2 |
| 20260905144100 | 17 | 275 | 8.0 | 27.4 | 0.03 | 0.76 | 0.05 | 79 | 1014.0 |
| 20260905143559 | 16 | 223 | 8.0 | 30.6 | 0.03 | 0.76 | 0.05 | 79 | 1014.0 |
| 20260905143101 | 16 | 225 | 14.5 | 30.6 | 0.03 | 0.76 | 0.05 | 79 | 1014.0 |
| 20260905142603 | 17 | 219 | 11.3 | 43.5 | 0.03 | 0.76 | 0.05 | 75 | 1013.8 |
| 20260905142100 | 18 | 217 | 22.5 | 43.5 | 0.00 | 0.71 | 0.03 | 70 | 1013.8 |
| 20260905141628 | 18 | 205 | 14.5 | 25.7 | 0.00 | 0.71 | 0.03 | 68 | 1013.9 |
| 20260905141501 | 18 | 213 | 11.3 | 35.4 | 0.00 | 0.71 | 0.03 | 68 | 1013.7 |
| 20260905141104 | 19 | 227 | 16.1 | 35.4 | 0.00 | 0.71 | 0.03 | 68 | 1013.7 |
| 20260905140603 | 19 | 188 | 16.1 | 37.0 | 0.00 | 0.71 | 0.03 | 68 | 1013.6 |
| 20260905140502 | 19 | 238 | 14.5 | 37.0 | 0.00 | 0.71 | 0.03 | 68 | 1013.6 |
| 20260905140100 | 19 | 219 | 22.5 | 35.4 | 0.00 | 0.71 | 0.03 | 67 | 1013.7 |
| 20260905140004 | 19 | 227 | 24.1 | 35.4 | 0.00 | 0.71 | 0.03 | 66 | 1013.5 |
| 20260905135502 | 19 | 240 | 16.1 | 43.5 | 0.00 | 0.71 | 0.03 | 67 | 1013.6 |
| 20260905135101 | 19 | 223 | 14.5 | 43.5 | 0.00 | 0.71 | 0.03 | 66 | 1013.6 |
| 20260905135003 | 19 | 219 | 17.7 | 43.5 | 0.00 | 0.71 | 0.03 | 65 | 1013.6 |
| 20260905134600 | 20 | 213 | 20.9 | 53.1 | 0.00 | 0.71 | 0.03 | 65 | 1013.6 |
| 20260905134501 | 20 | 235 | 17.7 | 53.1 | 0.00 | 0.71 | 0.03 | 66 | 1013.5 |
| 20260905134102 | 20 | 197 | 25.7 | 53.1 | 0.00 | 0.71 | 0.03 | 64 | 1013.7 |
| 20260905133602 | 20 | 223 | 17.7 | 38.6 | 0.00 | 0.71 | 0.03 | 65 | 1013.7 |
| 20260905133002 | 20 | 227 | 14.5 | 30.6 | 0.00 | 0.71 | 0.03 | 66 | 1013.5 |
| 20260905132501 | 20 | 211 | 16.1 | 30.6 | 0.00 | 0.71 | 0.03 | 67 | 1013.5 |
| 20260905132100 | 20 | 209 | 12.9 | 32.2 | 0.00 | 0.71 | 0.03 | 69 | 1013.4 |
| 20260905131629 | 19 | 195 | 11.3 | 40.2 | 0.00 | 0.71 | 0.03 | 70 | 1013.4 |
| 20260905131006 | 20 | 215 | 22.5 | 40.2 | 0.00 | 0.71 | 0.03 | 69 | 1013.3 |
| 20260905130503 | 20 | 209 | 11.3 | 24.1 | 0.00 | 0.71 | 0.03 | 69 | 1013.4 |
| 20260905130111 | 20 | 225 | 14.5 | 24.1 | 0.00 | 0.71 | 0.03 | 69 | 1013.4 |
| 20260905130002 | 19 | 232 | 12.9 | 29.0 | 0.00 | 0.71 | 0.03 | 69 | 1013.4 |
| 20260905125504 | 20 | 249 | 12.9 | 37.0 | 0.00 | 0.71 | 0.03 | 68 | 1013.4 |
| 20260905125003 | 19 | 217 | 16.1 | 37.0 | 0.00 | 0.71 | 0.03 | 68 | 1013.4 |
| 20260905124502 | 20 | 211 | 19.3 | 32.2 | 0.00 | 0.71 | 0.03 | 66 | 1013.6 |
| 20260905124100 | 20 | 225 | 19.3 | 33.8 | 0.00 | 0.71 | 0.03 | 65 | 1013.5 |
| 20260905123601 | 20 | 228 | 12.9 | 33.8 | 0.00 | 0.71 | 0.03 | 67 | 1013.6 |
| 20260905123503 | 20 | 227 | 14.5 | 35.4 | 0.00 | 0.71 | 0.03 | 66 | 1013.6 |
| 20260905123109 | 20 | 217 | 17.7 | 35.4 | 0.00 | 0.71 | 0.03 | 66 | 1013.6 |
| 20260905123004 | 20 | 207 | 17.7 | 35.4 | 0.00 | 0.71 | 0.03 | 65 | 1013.6 |
| 20260905122511 | 20 | 225 | 14.5 | 33.8 | 0.00 | 0.71 | 0.03 | 65 | 1013.8 |
| 20260905122001 | 20 | 227 | 16.1 | 33.8 | 0.00 | 0.71 | 0.03 | 64 | 1013.7 |
| 20260905121600 | 20 | 239 | 22.5 | 35.4 | 0.00 | 0.71 | 0.03 | 65 | 1013.9 |
| 20260905121102 | 19 | 232 | 14.5 | 33.8 | 0.00 | 0.71 | 0.03 | 66 | 1013.7 |
| 20260905121002 | 19 | 212 | 16.1 | 30.6 | 0.00 | 0.71 | 0.03 | 66 | 1013.6 |
| 20260905120504 | 19 | 223 | 8.0 | 24.1 | 0.00 | 0.71 | 0.03 | 67 | 1013.5 |
| 20260905120000 | 19 | 269 | 11.3 | 33.8 | 0.00 | 0.71 | 0.03 | 64 | 1013.5 |
| 20260905115559 | 20 | 248 | 12.9 | 33.8 | 0.00 | 0.71 | 0.03 | 62 | 1013.4 |
| 20260905115101 | 20 | 213 | 12.9 | 29.0 | 0.00 | 0.71 | 0.03 | 63 | 1013.4 |
| 20260905114600 | 20 | 276 | 11.3 | 29.0 | 0.00 | 0.71 | 0.03 | 62 | 1013.5 |
| 20260905114100 | 20 | 228 | 11.3 | 25.7 | 0.00 | 0.71 | 0.03 | 63 | 1013.5 |
| 20260905113600 | 20 | 221 | 9.7 | 29.0 | 0.00 | 0.71 | 0.03 | 63 | 1013.5 |
| 20260905113108 | 20 | 223 | 12.9 | 32.2 | 0.00 | 0.71 | 0.03 | 63 | 1013.6 |
| 20260905112600 | 20 | 217 | 14.5 | 32.2 | 0.00 | 0.71 | 0.03 | 64 | 1013.5 |
| 20260905112100 | 19 | 232 | 12.9 | 29.0 | 0.00 | 0.71 | 0.03 | 63 | 1013.7 |
| 20260905111604 | 20 | 220 | 11.3 | 33.8 | 0.00 | 0.71 | 0.03 | 64 | 1013.6 |
| 20260905111100 | 19 | 202 | 11.3 | 37.0 | 0.00 | 0.71 | 0.03 | 66 | 1013.5 |
| 20260905110600 | 18 | 238 | 20.9 | 37.0 | 0.00 | 0.71 | 0.03 | 66 | 1013.7 |
| 20260905110059 | 18 | 221 | 11.3 | 20.9 | 0.00 | 0.71 | 0.03 | 68 | 1013.7 |
| 20260905105600 | 18 | 239 | 6.4 | 22.5 | 0.00 | 0.71 | 0.03 | 69 | 1013.6 |
| 20260905105102 | 18 | 221 | 12.9 | 22.5 | 0.00 | 0.71 | 0.03 | 69 | 1013.7 |
| 20260905104600 | 18 | 204 | 4.8 | 25.7 | 0.00 | 0.71 | 0.03 | 70 | 1013.7 |
| 20260905104100 | 17 | 229 | 9.7 | 25.7 | 0.00 | 0.71 | 0.03 | 71 | 1013.7 |
| 20260905103601 | 17 | 256 | 12.9 | 22.5 | 0.00 | 0.71 | 0.03 | 72 | 1013.9 |
| 20260905103100 | 17 | 232 | 6.4 | 19.3 | 0.00 | 0.71 | 0.03 | 73 | 1013.7 |
| 20260905102559 | 17 | 144 | 9.7 | 19.3 | 0.00 | 0.71 | 0.03 | 72 | 1013.8 |
| 20260905102100 | 17 | 256 | 11.3 | 24.1 | 0.00 | 0.71 | 0.03 | 73 | 1013.8 |
| 20260905101626 | 17 | 218 | 6.4 | 24.1 | 0.00 | 0.71 | 0.03 | 73 | 1013.7 |
| 20260905101104 | 17 | 202 | 6.4 | 24.1 | 0.00 | 0.71 | 0.03 | 72 | 1013.7 |
| 20260905100600 | 17 | 250 | 9.7 | 25.7 | 0.00 | 0.71 | 0.03 | 69 | 1013.6 |
| 20260905100101 | 18 | 202 | 11.3 | 32.2 | 0.00 | 0.71 | 0.03 | 68 | 1013.5 |
| 20260905100002 | 18 | 200 | 11.3 | 33.8 | 0.00 | 0.71 | 0.03 | 67 | 1013.5 |
| 20260905095600 | 18 | 227 | 14.5 | 33.8 | 0.00 | 0.71 | 0.03 | 66 | 1013.6 |
| 20260905095500 | 18 | 233 | 16.1 | 33.8 | 0.00 | 0.71 | 0.03 | 66 | 1013.6 |
| 20260905095002 | 18 | 193 | 16.1 | 30.6 | 0.00 | 0.71 | 0.03 | 68 | 1013.6 |
| 20260905094502 | 18 | 235 | 16.1 | 35.4 | 0.00 | 0.71 | 0.03 | 68 | 1013.7 |
| 20260905094001 | 18 | 246 | 16.1 | 35.4 | 0.00 | 0.71 | 0.03 | 68 | 1013.6 |
| 20260905093602 | 18 | 231 | 11.3 | 25.7 | 0.00 | 0.71 | 0.03 | 67 | 1013.5 |
| 20260905093102 | 18 | 186 | 14.5 | 37.0 | 0.00 | 0.71 | 0.03 | 68 | 1013.4 |
| 20260905092603 | 17 | 168 | 17.7 | 37.0 | 0.00 | 0.71 | 0.03 | 68 | 1013.3 |
| 20260905092501 | 17 | 225 | 20.9 | 37.0 | 0.00 | 0.71 | 0.03 | 69 | 1013.4 |
| 20260905092101 | 17 | 220 | 8.0 | 29.0 | 0.00 | 0.71 | 0.03 | 70 | 1013.3 |
| 20260905091624 | 17 | 205 | 9.7 | 29.0 | 0.00 | 0.71 | 0.03 | 68 | 1013.2 |
| 20260905091501 | 18 | 191 | 12.9 | 30.6 | 0.00 | 0.71 | 0.03 | 68 | 1013.2 |
| 20260905091100 | 18 | 207 | 11.3 | 30.6 | 0.00 | 0.71 | 0.03 | 69 | 1013.2 |
| 20260905090501 | 18 | 209 | 14.5 | 32.2 | 0.00 | 0.71 | 0.03 | 70 | 1013.1 |
| 20260905090003 | 17 | 234 | 8.0 | 29.0 | 0.00 | 0.71 | 0.03 | 71 | 1013.2 |
| 20260905085503 | 17 | 227 | 14.5 | 29.0 | 0.00 | 0.71 | 0.03 | 70 | 1013.3 |
| 20260905085000 | 17 | 197 | 11.3 | 29.0 | 0.00 | 0.71 | 0.03 | 71 | 1013.0 |
| 20260905084617 | 17 | 218 | 9.7 | 29.0 | 0.00 | 0.71 | 0.03 | 69 | 1013.0 |
| 20260905084001 | 17 | 243 | 11.3 | 27.4 | 0.00 | 0.71 | 0.03 | 71 | 1013.0 |
| 20260905083501 | 17 | 213 | 12.9 | 33.8 | 0.00 | 0.71 | 0.03 | 71 | 1013.0 |
| 20260905083002 | 17 | 236 | 11.3 | 33.8 | 0.00 | 0.71 | 0.03 | 71 | 1012.9 |
| 20260905082600 | 17 | 223 | 12.9 | 33.8 | 0.00 | 0.71 | 0.03 | 71 | 1012.9 |
| 20260905082504 | 17 | 285 | 17.7 | 33.8 | 0.00 | 0.71 | 0.03 | 71 | 1012.9 |
| 20260905082101 | 17 | 219 | 12.9 | 32.2 | 0.00 | 0.71 | 0.03 | 73 | 1012.8 |
| 20260905081601 | 17 | 211 | 12.9 | 32.2 | 0.00 | 0.71 | 0.03 | 74 | 1012.7 |
| 20260905081000 | 17 | 221 | 12.9 | 32.2 | 0.00 | 0.71 | 0.03 | 74 | 1012.8 |
| 20260905080501 | 17 | 223 | 16.1 | 32.2 | 0.00 | 0.71 | 0.03 | 74 | 1012.7 |
| 20260905080100 | 17 | 220 | 11.3 | 32.2 | 0.00 | 0.71 | 0.03 | 74 | 1012.7 |
| 20260905080003 | 17 | 271 | 9.7 | 30.6 | 0.00 | 0.71 | 0.03 | 74 | 1012.6 |
| 20260905075502 | 17 | 218 | 6.4 | 25.7 | 0.00 | 0.71 | 0.03 | 76 | 1012.6 |
| 20260905075101 | 17 | 234 | 8.0 | 32.2 | 0.00 | 0.71 | 0.03 | 75 | 1012.5 |
| 20260905074601 | 17 | 260 | 12.9 | 32.2 | 0.00 | 0.71 | 0.03 | 75 | 1012.4 |
| 20260905074501 | 17 | 278 | 14.5 | 32.2 | 0.00 | 0.71 | 0.03 | 75 | 1012.5 |
| 20260905074002 | 17 | 200 | 11.3 | 38.6 | 0.00 | 0.71 | 0.03 | 76 | 1012.2 |
| 20260905073601 | 16 | 269 | 16.1 | 38.6 | 0.00 | 0.71 | 0.03 | 75 | 1012.3 |
| 20260905073003 | 17 | 220 | 16.1 | 35.4 | 0.00 | 0.71 | 0.03 | 76 | 1012.1 |
| 20260905072501 | 17 | 218 | 9.7 | 27.4 | 0.00 | 0.71 | 0.03 | 78 | 1012.2 |
| 20260905072001 | 16 | 312 | 12.9 | 27.4 | 0.00 | 0.71 | 0.03 | 77 | 1012.1 |
| 20260905071603 | 16 | 215 | 12.9 | 35.4 | 0.00 | 0.71 | 0.03 | 78 | 1012.0 |
| 20260905071103 | 16 | 235 | 16.1 | 35.4 | 0.00 | 0.71 | 0.03 | 78 | 1012.1 |
| 20260905070601 | 16 | 205 | 9.7 | 29.0 | 0.00 | 0.71 | 0.03 | 79 | 1011.9 |
| 20260905070113 | 16 | 273 | 9.7 | 27.4 | 0.00 | 0.71 | 0.03 | 79 | 1011.9 |
| 20260905065559 | 16 | 215 | 9.7 | 29.0 | 0.00 | 0.71 | 0.03 | 80 | 1011.8 |
| 20260905065100 | 16 | 223 | 11.3 | 27.4 | 0.00 | 0.71 | 0.03 | 81 | 1011.7 |
| 20260905064601 | 16 | 242 | 14.5 | 27.4 | 0.00 | 0.71 | 0.03 | 81 | 1011.6 |
| 20260905064100 | 16 | 225 | 11.3 | 30.6 | 0.00 | 0.71 | 0.03 | 82 | 1011.6 |
| 20260905063602 | 16 | 248 | 14.5 | 30.6 | 0.00 | 0.71 | 0.03 | 82 | 1011.5 |
| 20260905063101 | 16 | 220 | 14.5 | 29.0 | 0.00 | 0.71 | 0.03 | 82 | 1011.4 |
| 20260905062559 | 16 | 228 | 14.5 | 25.7 | 0.00 | 0.71 | 0.03 | 82 | 1011.3 |
| 20260905062059 | 15 | 213 | 8.0 | 25.7 | 0.00 | 0.71 | 0.03 | 83 | 1011.2 |
| 20260905061617 | 15 | 248 | 11.3 | 33.8 | 0.00 | 0.71 | 0.03 | 83 | 1011.2 |
| 20260905061059 | 15 | 221 | 17.7 | 33.8 | 0.00 | 0.71 | 0.03 | 84 | 1011.3 |
| 20260905060601 | 15 | 207 | 9.7 | 27.4 | 0.00 | 0.71 | 0.03 | 84 | 1011.2 |
| 20260905060100 | 15 | 223 | 14.5 | 27.4 | 0.00 | 0.71 | 0.03 | 85 | 1011.2 |
| 20260905055600 | 15 | 246 | 9.7 | 25.7 | 0.00 | 0.71 | 0.03 | 85 | 1011.2 |
| 20260905055059 | 15 | 246 | 9.7 | 37.0 | 0.00 | 0.71 | 0.03 | 86 | 1011.2 |
| 20260905054603 | 15 | 221 | 16.1 | 37.0 | 0.00 | 0.71 | 0.03 | 86 | 1011.1 |
| 20260905054100 | 15 | 230 | 11.3 | 27.4 | 0.00 | 0.71 | 0.03 | 86 | 1011.1 |
| 20260905053600 | 15 | 204 | 12.9 | 29.0 | 0.00 | 0.71 | 0.03 | 86 | 1011.1 |
| 20260905053112 | 15 | 223 | 17.7 | 29.0 | 0.00 | 0.71 | 0.03 | 86 | 1011.0 |
| 20260905052602 | 14 | 217 | 9.7 | 29.0 | 0.00 | 0.71 | 0.03 | 86 | 1011.0 |
| 20260905052100 | 14 | 238 | 12.9 | 37.0 | 0.00 | 0.71 | 0.03 | 86 | 1010.9 |
| 20260905051559 | 14 | 190 | 12.9 | 37.0 | 0.00 | 0.71 | 0.03 | 87 | 1010.9 |
| 20260905051100 | 14 | 176 | 8.0 | 25.7 | 0.00 | 0.71 | 0.03 | 87 | 1010.8 |
| 20260905050559 | 14 | 219 | 12.9 | 24.1 | 0.00 | 0.71 | 0.03 | 87 | 1010.7 |
| 20260905050100 | 14 | 213 | 11.3 | 25.7 | 0.00 | 0.71 | 0.03 | 87 | 1010.7 |
| 20260905045559 | 13 | 258 | 9.7 | 25.7 | 0.00 | 0.71 | 0.03 | 87 | 1010.7 |
| 20260905045059 | 13 | 225 | 9.7 | 22.5 | 0.00 | 0.71 | 0.03 | 87 | 1010.6 |
| 20260905044600 | 13 | 234 | 8.0 | 30.6 | 0.00 | 0.71 | 0.03 | 87 | 1010.5 |
| 20260905044058 | 13 | 167 | 8.0 | 30.6 | 0.00 | 0.71 | 0.03 | 87 | 1010.4 |
| 20260905043600 | 13 | 244 | 11.3 | 25.7 | 0.00 | 0.71 | 0.03 | 87 | 1010.4 |
| 20260905043100 | 13 | 269 | 8.0 | 25.7 | 0.00 | 0.71 | 0.03 | 87 | 1010.3 |
| 20260905042603 | 13 | 220 | 11.3 | 25.7 | 0.00 | 0.71 | 0.03 | 86 | 1010.4 |
| 20260905042059 | 13 | 191 | 9.7 | 24.1 | 0.00 | 0.71 | 0.03 | 87 | 1010.3 |
| 20260905041600 | 13 | 218 | 8.0 | 25.7 | 0.00 | 0.71 | 0.03 | 86 | 1010.3 |
| 20260905041059 | 13 | 277 | 11.3 | 25.7 | 0.00 | 0.71 | 0.03 | 86 | 1010.1 |
| 20260905040559 | 13 | 230 | 8.0 | 24.1 | 0.00 | 0.71 | 0.03 | 86 | 1010.0 |
| 20260905040100 | 13 | 209 | 8.0 | 22.5 | 0.00 | 0.71 | 0.03 | 86 | 1010.1 |
| 20260905040002 | 13 | 211 | 11.3 | 22.5 | 0.00 | 0.71 | 0.03 | 86 | 1010.0 |
| 20260905035501 | 13 | 237 | 11.3 | 19.3 | 0.00 | 0.71 | 0.03 | 86 | 1009.9 |
| 20260905035002 | 14 | 202 | 6.4 | 19.3 | 0.00 | 0.71 | 0.03 | 86 | 1009.9 |
| 20260905034601 | 14 | 221 | 8.0 | 19.3 | 0.00 | 0.71 | 0.03 | 86 | 1009.8 |
| 20260905034104 | 14 | 197 | 8.0 | 19.3 | 0.00 | 0.71 | 0.03 | 86 | 1009.8 |
| 20260905033601 | 14 | 294 | 11.3 | 19.3 | 0.00 | 0.71 | 0.03 | 86 | 1009.8 |
| 20260905033001 | 14 | 241 | 9.7 | 27.4 | 0.00 | 0.71 | 0.03 | 86 | 1009.7 |
| 20260905032601 | 14 | 215 | 6.4 | 27.4 | 0.00 | 0.71 | 0.03 | 86 | 1009.7 |
| 20260905032500 | 14 | 228 | 6.4 | 27.4 | 0.00 | 0.71 | 0.03 | 86 | 1009.7 |
| 20260905032103 | 14 | 234 | 6.4 | 20.9 | 0.00 | 0.71 | 0.03 | 86 | 1009.7 |
| 20260905031602 | 14 | 207 | 9.7 | 20.9 | 0.00 | 0.71 | 0.03 | 86 | 1009.7 |
| 20260905031100 | 14 | 228 | 12.9 | 22.5 | 0.00 | 0.71 | 0.03 | 86 | 1009.8 |
| 20260905030600 | 14 | 220 | 8.0 | 24.1 | 0.00 | 0.71 | 0.03 | 86 | 1009.7 |
| 20260905030104 | 14 | 215 | 9.7 | 19.3 | 0.00 | 0.71 | 0.03 | 86 | 1009.7 |
| 20260905025557 | 14 | 205 | 9.7 | 22.5 | 0.00 | 0.71 | 0.03 | 86 | 1009.7 |
| 20260905025058 | 14 | 219 | 11.3 | 22.5 | 0.00 | 0.71 | 0.03 | 86 | 1009.6 |
| 20260905024630 | 14 | 152 | 6.4 | 24.1 | 0.00 | 0.71 | 0.03 | 86 | 1009.5 |
| 20260905024059 | 14 | 228 | 9.7 | 22.5 | 0.00 | 0.71 | 0.03 | 86 | 1009.5 |
| 20260905023558 | 14 | 221 | 9.7 | 27.4 | 0.00 | 0.71 | 0.03 | 86 | 1009.5 |
| 20260905023100 | 14 | 220 | 14.5 | 29.0 | 0.00 | 0.71 | 0.03 | 86 | 1009.4 |
| 20260905022558 | 15 | 209 | 6.4 | 17.7 | 0.00 | 0.71 | 0.03 | 86 | 1009.3 |
| 20260905022057 | 15 | 227 | 8.0 | 19.3 | 0.00 | 0.71 | 0.03 | 85 | 1009.2 |
| 20260905021557 | 15 | 219 | 11.3 | 17.7 | 0.00 | 0.71 | 0.03 | 85 | 1009.2 |
| 20260905021057 | 15 | 204 | 6.4 | 16.1 | 0.00 | 0.71 | 0.03 | 85 | 1009.0 |
| 20260905020557 | 15 | 242 | 6.4 | 24.1 | 0.00 | 0.71 | 0.03 | 84 | 1008.9 |
| 20260905020058 | 15 | 182 | 11.3 | 24.1 | 0.00 | 0.71 | 0.03 | 84 | 1008.9 |
| 20260905015556 | 15 | 255 | 8.0 | 24.1 | 0.00 | 0.71 | 0.03 | 84 | 1008.8 |
| 20260905015059 | 15 | 225 | 9.7 | 24.1 | 0.00 | 0.71 | 0.03 | 84 | 1008.8 |
| 20260905014558 | 15 | 239 | 6.4 | 16.1 | 0.00 | 0.71 | 0.03 | 84 | 1008.7 |
| 20260905014059 | 15 | 273 | 6.4 | 16.1 | 0.00 | 0.71 | 0.03 | 84 | 1008.6 |
| 20260905013558 | 15 | 299 | 4.8 | 19.3 | 0.00 | 0.71 | 0.03 | 84 | 1008.7 |
| 20260905013056 | 15 | 229 | 6.4 | 19.3 | 0.00 | 0.71 | 0.03 | 84 | 1008.7 |
| 20260905012556 | 15 | 184 | 6.4 | 19.3 | 0.00 | 0.71 | 0.03 | 84 | 1008.7 |
| 20260905012058 | 15 | 243 | 9.7 | 29.0 | 0.00 | 0.71 | 0.03 | 84 | 1008.7 |
| 20260905011601 | 15 | 211 | 6.4 | 27.4 | 0.00 | 0.71 | 0.03 | 85 | 1008.6 |
| 20260905011056 | 15 | 204 | 6.4 | 27.4 | 0.00 | 0.71 | 0.03 | 85 | 1008.6 |
| 20260905010555 | 15 | 217 | 8.0 | 33.8 | 0.00 | 0.71 | 0.03 | 86 | 1008.4 |
| 20260905010101 | 15 | 230 | 8.0 | 33.8 | 0.00 | 0.71 | 0.03 | 86 | 1008.3 |
| 20260905005556 | 15 | 188 | 9.7 | 30.6 | 0.00 | 0.71 | 0.03 | 86 | 1008.4 |
| 20260905005058 | 15 | 278 | 9.7 | 30.6 | 0.00 | 0.71 | 0.03 | 86 | 1008.1 |
| 20260905004601 | 15 | 223 | 9.7 | 17.7 | 0.00 | 0.71 | 0.03 | 86 | 1007.9 |
| 20260905004059 | 15 | 240 | 4.8 | 19.3 | 0.00 | 0.71 | 0.03 | 86 | 1007.9 |
| 20260905003556 | 15 | 188 | 6.4 | 19.3 | 0.00 | 0.71 | 0.03 | 87 | 1007.8 |
| 20260905003057 | 15 | 303 | 8.0 | 25.7 | 0.00 | 0.71 | 0.03 | 87 | 1007.9 |
| 20260905002556 | 15 | 259 | 9.7 | 25.7 | 0.00 | 0.71 | 0.03 | 87 | 1008.0 |
| 20260905002057 | 15 | 168 | 4.8 | 25.7 | 0.00 | 0.71 | 0.03 | 88 | 1008.0 |
| 20260905001556 | 15 | 173 | 8.0 | 17.7 | 0.00 | 0.71 | 0.03 | 88 | 1007.9 |
| 20260905001055 | 15 | 205 | 9.7 | 20.9 | 0.00 | 0.71 | 0.03 | 88 | 1007.8 |
| 20260905000557 | 15 | 248 | 4.8 | 20.9 | 0.00 | 0.71 | 0.03 | 88 | 1007.6 |
| 20260905000056 | 15 | 230 | 9.7 | 24.1 | 0.00 | 0.71 | 0.03 | 88 | 1007.5 |
| 20260904235557 | 15 | 216 | 11.3 | 24.1 | 0.00 | 0.71 | 0.03 | 88 | 1007.3 |
| 20260904235058 | 15 | 233 | 4.8 | 22.5 | 0.00 | 0.71 | 0.03 | 88 | 1007.1 |
| 20260904234557 | 15 | 202 | 8.0 | 22.5 | 0.00 | 0.71 | 0.03 | 88 | 1007.0 |
| 20260904234056 | 15 | 142 | 6.4 | 17.7 | 0.00 | 0.71 | 0.03 | 88 | 1006.9 |
| 20260904233558 | 15 | 229 | 8.0 | 17.7 | 0.00 | 0.71 | 0.03 | 88 | 1007.0 |
| 20260904233104 | 15 | 226 | 4.8 | 16.1 | 0.00 | 0.71 | 0.03 | 89 | 1007.1 |
| 20260904232558 | 15 | 168 | 8.0 | 16.1 | 0.00 | 0.71 | 0.03 | 89 | 1007.1 |
| 20260904232057 | 16 | 236 | 4.8 | 16.1 | 0.00 | 0.71 | 0.03 | 88 | 1006.8 |
| 20260904231558 | 16 | 214 | 4.8 | 16.1 | 0.00 | 0.71 | 0.03 | 88 | 1006.8 |
| 20260904231101 | 16 | 248 | 3.2 | 19.3 | 0.00 | 0.71 | 0.03 | 88 | 1006.8 |
| 20260904230558 | 16 | 237 | 4.8 | 24.1 | 0.00 | 0.71 | 0.03 | 88 | 1006.6 |
| 20260904230058 | 16 | 213 | 8.0 | 22.5 | 0.03 | 0.71 | 0.03 | 88 | 1006.6 |
| 20260904225557 | 16 | 215 | 4.8 | 22.5 | 0.05 | 0.71 | 0.03 | 88 | 1006.7 |
| 20260904225057 | 16 | 225 | 11.3 | 22.5 | 0.05 | 0.71 | 0.03 | 88 | 1006.6 |
| 20260904224555 | 16 | 152 | 8.0 | 19.3 | 0.05 | 0.71 | 0.03 | 88 | 1006.5 |
| 20260904224057 | 16 | 223 | 6.4 | 19.3 | 0.05 | 0.71 | 0.03 | 88 | 1006.4 |
| 20260904223557 | 16 | 211 | 4.8 | 22.5 | 0.36 | 0.71 | 0.03 | 88 | 1006.3 |
| 20260904223100 | 16 | 250 | 8.0 | 22.5 | 0.38 | 0.71 | 0.03 | 88 | 1006.3 |
| 20260904222557 | 16 | 216 | 6.4 | 25.7 | 0.38 | 0.71 | 0.03 | 88 | 1006.2 |
| 20260904222057 | 16 | 221 | 8.0 | 30.6 | 0.38 | 0.71 | 0.03 | 88 | 1006.0 |
| 20260904221604 | 16 | 140 | 8.0 | 14.5 | 0.38 | 0.71 | 0.03 | 88 | 1006.0 |
| 20260904221057 | 16 | 219 | 6.4 | 17.7 | 0.38 | 0.71 | 0.03 | 88 | 1006.0 |
| 20260904220556 | 16 | 202 | 9.7 | 19.3 | 0.36 | 0.71 | 0.00 | 88 | 1005.9 |
| 20260904215558 | 16 | 182 | 4.8 | 19.3 | 0.33 | 0.71 | 0.71 | 88 | 1005.6 |
| 20260904215058 | 16 | 205 | 4.8 | 19.3 | 0.33 | 0.71 | 0.71 | 88 | 1005.6 |
| 20260904214607 | 16 | 257 | 3.2 | 11.3 | 0.33 | 0.71 | 0.69 | 88 | 1005.7 |
| 20260904214058 | 16 | 202 | 8.0 | 11.3 | 0.33 | 0.71 | 0.69 | 88 | 1005.7 |
| 20260904213559 | 16 | 336 | 3.2 | 9.7 | 0.03 | 0.43 | 0.38 | 88 | 1005.7 |
| 20260904213058 | 16 | 230 | 3.2 | 11.3 | 0.00 | 0.41 | 0.36 | 88 | 1005.3 |
| 20260904212558 | 16 | 206 | 4.8 | 11.3 | 0.00 | 0.41 | 0.36 | 88 | 1005.2 |
| 20260904212102 | 16 | 210 | 4.8 | 8.0 | 0.00 | 0.41 | 0.36 | 88 | 1005.1 |
| 20260904211605 | 16 | 174 | 3.2 | 6.4 | 0.00 | 0.41 | 0.36 | 88 | 1005.2 |